sensor_id;sensor_type;location;lat;lon;timestamp;pressure;altitude;pressure_sealevel;temperature;humidity
11987;BME280;6053;51.382;6.768;2023-04-27T00:02:27;101622.53;;;12.44;70.59
11987;BME280;6053;51.382;6.768;2023-04-27T00:04:55;101617.63;;;12.46;70.37
11987;BME280;6053;51.382;6.768;2023-04-27T00:07:24;101618.91;;;12.43;70.16
11987;BME280;6053;51.382;6.768;2023-04-27T00:09:54;101621.53;;;12.38;70.67
11987;BME280;6053;51.382;6.768;2023-04-27T00:12:22;101628.59;;;12.34;70.72
11987;BME280;6053;51.382;6.768;2023-04-27T00:14:50;101621.78;;;12.30;70.62
11987;BME280;6053;51.382;6.768;2023-04-27T00:17:18;101631.13;;;12.36;70.72
11987;BME280;6053;51.382;6.768;2023-04-27T00:19:47;101629.06;;;12.24;70.83
11987;BME280;6053;51.382;6.768;2023-04-27T00:22:15;101629.22;;;12.30;70.60
11987;BME280;6053;51.382;6.768;2023-04-27T00:24:44;101626.47;;;12.30;70.71
11987;BME280;6053;51.382;6.768;2023-04-27T00:27:13;101616.47;;;12.29;70.44
11987;BME280;6053;51.382;6.768;2023-04-27T00:29:41;101631.59;;;12.26;70.65
11987;BME280;6053;51.382;6.768;2023-04-27T00:32:10;101634.81;;;12.23;71.18
11987;BME280;6053;51.382;6.768;2023-04-27T00:34:39;101622.91;;;12.22;70.72
11987;BME280;6053;51.382;6.768;2023-04-27T00:37:07;101634.59;;;12.24;70.67
11987;BME280;6053;51.382;6.768;2023-04-27T00:39:36;101643.09;;;12.23;70.71
11987;BME280;6053;51.382;6.768;2023-04-27T00:42:04;101639.09;;;12.19;70.97
11987;BME280;6053;51.382;6.768;2023-04-27T00:44:38;101635.91;;;12.15;71.25
11987;BME280;6053;51.382;6.768;2023-04-27T00:47:07;101647.81;;;12.16;70.99
11987;BME280;6053;51.382;6.768;2023-04-27T00:49:35;101632.31;;;12.15;70.90
11987;BME280;6053;51.382;6.768;2023-04-27T00:52:04;101636.59;;;12.11;71.09
11987;BME280;6053;51.382;6.768;2023-04-27T00:54:33;101638.25;;;12.18;70.57
11987;BME280;6053;51.382;6.768;2023-04-27T00:57:02;101641.25;;;12.10;71.02
11987;BME280;6053;51.382;6.768;2023-04-27T00:59:31;101634.69;;;12.11;71.26
11987;BME280;6053;51.382;6.768;2023-04-27T01:02:00;101632.53;;;12.13;71.22
11987;BME280;6053;51.382;6.768;2023-04-27T01:04:29;101637.44;;;12.11;70.81
11987;BME280;6053;51.382;6.768;2023-04-27T01:06:58;101635.31;;;12.07;71.02
11987;BME280;6053;51.382;6.768;2023-04-27T01:09:28;101632.59;;;12.00;71.35
11987;BME280;6053;51.382;6.768;2023-04-27T01:11:57;101636.00;;;12.02;71.46
11987;BME280;6053;51.382;6.768;2023-04-27T01:14:25;101636.44;;;11.99;71.39
11987;BME280;6053;51.382;6.768;2023-04-27T01:16:53;101632.38;;;12.01;71.30
11987;BME280;6053;51.382;6.768;2023-04-27T01:19:23;101633.50;;;11.94;71.46
11987;BME280;6053;51.382;6.768;2023-04-27T01:21:51;101642.41;;;11.96;71.42
11987;BME280;6053;51.382;6.768;2023-04-27T01:24:21;101638.38;;;11.92;71.38
11987;BME280;6053;51.382;6.768;2023-04-27T01:26:49;101640.50;;;11.90;71.43
11987;BME280;6053;51.382;6.768;2023-04-27T01:29:19;101637.75;;;11.90;71.72
11987;BME280;6053;51.382;6.768;2023-04-27T01:31:48;101652.22;;;11.85;72.09
11987;BME280;6053;51.382;6.768;2023-04-27T01:34:16;101650.09;;;11.80;72.17
11987;BME280;6053;51.382;6.768;2023-04-27T01:36:44;101653.91;;;11.86;71.73
11987;BME280;6053;51.382;6.768;2023-04-27T01:39:12;101653.72;;;11.88;71.53
11987;BME280;6053;51.382;6.768;2023-04-27T01:41:42;101640.94;;;11.87;71.22
11987;BME280;6053;51.382;6.768;2023-04-27T01:44:11;101654.16;;;11.85;71.66
11987;BME280;6053;51.382;6.768;2023-04-27T01:46:39;101654.34;;;11.76;71.75
11987;BME280;6053;51.382;6.768;2023-04-27T01:49:07;101648.41;;;11.73;72.14
11987;BME280;6053;51.382;6.768;2023-04-27T01:51:36;101659.69;;;11.71;71.93
11987;BME280;6053;51.382;6.768;2023-04-27T01:54:04;101667.34;;;11.69;72.23
11987;BME280;6053;51.382;6.768;2023-04-27T01:56:34;101671.19;;;11.68;71.89
11987;BME280;6053;51.382;6.768;2023-04-27T01:59:03;101667.16;;;11.64;72.01
11987;BME280;6053;51.382;6.768;2023-04-27T02:01:32;101671.19;;;11.68;71.93
11987;BME280;6053;51.382;6.768;2023-04-27T02:04:00;101664.81;;;11.68;71.94
11987;BME280;6053;51.382;6.768;2023-04-27T02:06:28;101671.19;;;11.62;71.88
11987;BME280;6053;51.382;6.768;2023-04-27T02:08:57;101671.63;;;11.59;72.32
11987;BME280;6053;51.382;6.768;2023-04-27T02:11:25;101672.72;;;11.57;72.18
11987;BME280;6053;51.382;6.768;2023-04-27T02:13:53;101664.00;;;11.54;72.21
11987;BME280;6053;51.382;6.768;2023-04-27T02:16:23;101666.13;;;11.52;72.04
11987;BME280;6053;51.382;6.768;2023-04-27T02:18:51;101658.47;;;11.54;72.12
11987;BME280;6053;51.382;6.768;2023-04-27T02:21:20;101657.66;;;11.47;72.76
11987;BME280;6053;51.382;6.768;2023-04-27T02:23:49;101656.78;;;11.46;72.29
11987;BME280;6053;51.382;6.768;2023-04-27T02:26:18;101657.41;;;11.48;72.30
11987;BME280;6053;51.382;6.768;2023-04-27T02:28:46;101653.41;;;11.44;72.39
11987;BME280;6053;51.382;6.768;2023-04-27T02:31:16;101650.22;;;11.41;72.89
11987;BME280;6053;51.382;6.768;2023-04-27T02:33:46;101656.78;;;11.40;72.72
11987;BME280;6053;51.382;6.768;2023-04-27T02:36:14;101653.59;;;11.43;72.66
11987;BME280;6053;51.382;6.768;2023-04-27T02:38:42;101653.41;;;11.31;73.39
11987;BME280;6053;51.382;6.768;2023-04-27T02:41:10;101650.22;;;11.34;72.85
11987;BME280;6053;51.382;6.768;2023-04-27T02:43:39;101656.63;;;11.21;71.60
11987;BME280;6053;51.382;6.768;2023-04-27T02:46:07;101656.81;;;11.13;72.15
11987;BME280;6053;51.382;6.768;2023-04-27T02:48:35;101659.56;;;11.20;71.51
11987;BME280;6053;51.382;6.768;2023-04-27T02:51:05;101656.38;;;11.23;73.20
11987;BME280;6053;51.382;6.768;2023-04-27T02:53:33;101651.09;;;11.21;73.23
11987;BME280;6053;51.382;6.768;2023-04-27T02:56:02;101654.06;;;11.13;73.40
11987;BME280;6053;51.382;6.768;2023-04-27T02:58:31;101647.47;;;11.34;72.25
11987;BME280;6053;51.382;6.768;2023-04-27T03:00:59;101648.13;;;11.09;70.47
11987;BME280;6053;51.382;6.768;2023-04-27T03:03:28;101639.22;;;11.14;72.60
11987;BME280;6053;51.382;6.768;2023-04-27T03:05:57;101644.75;;;11.07;72.78
11987;BME280;6053;51.382;6.768;2023-04-27T03:08:26;101628.34;;;11.19;73.30
11987;BME280;6053;51.382;6.768;2023-04-27T03:10:55;101629.66;;;11.17;70.74
11987;BME280;6053;51.382;6.768;2023-04-27T03:13:23;101634.13;;;10.98;68.70
11987;BME280;6053;51.382;6.768;2023-04-27T03:15:51;101632.44;;;10.83;74.29
11987;BME280;6053;51.382;6.768;2023-04-27T03:18:20;101633.47;;;10.76;71.55
11987;BME280;6053;51.382;6.768;2023-04-27T03:20:48;101634.31;;;10.76;72.71
11987;BME280;6053;51.382;6.768;2023-04-27T03:23:16;101629.03;;;10.75;71.94
11987;BME280;6053;51.382;6.768;2023-04-27T03:25:46;101633.28;;;10.91;72.16
11987;BME280;6053;51.382;6.768;2023-04-27T03:28:15;101638.81;;;10.71;68.42
11987;BME280;6053;51.382;6.768;2023-04-27T03:30:43;101636.47;;;10.88;74.06
11987;BME280;6053;51.382;6.768;2023-04-27T03:33:12;101645.78;;;11.06;73.75
11987;BME280;6053;51.382;6.768;2023-04-27T03:35:40;101637.94;;;11.03;72.31
11987;BME280;6053;51.382;6.768;2023-04-27T03:38:09;101639.41;;;10.99;73.56
11987;BME280;6053;51.382;6.768;2023-04-27T03:40:37;101642.41;;;10.98;73.68
11987;BME280;6053;51.382;6.768;2023-04-27T03:43:06;101647.09;;;10.91;73.79
11987;BME280;6053;51.382;6.768;2023-04-27T03:45:35;101646.25;;;10.77;69.83
11987;BME280;6053;51.382;6.768;2023-04-27T03:48:04;101634.97;;;10.72;74.49
11987;BME280;6053;51.382;6.768;2023-04-27T03:50:33;101643.06;;;10.67;74.13
11987;BME280;6053;51.382;6.768;2023-04-27T03:53:01;101645.56;;;10.55;70.77
11987;BME280;6053;51.382;6.768;2023-04-27T03:55:30;101636.03;;;10.51;73.81
11987;BME280;6053;51.382;6.768;2023-04-27T03:57:58;101646.66;;;10.60;74.38
11987;BME280;6053;51.382;6.768;2023-04-27T04:00:28;101640.44;;;10.32;75.16
11987;BME280;6053;51.382;6.768;2023-04-27T04:02:57;101653.50;;;10.10;72.56
11987;BME280;6053;51.382;6.768;2023-04-27T04:05:25;101649.72;;;10.24;74.50
11987;BME280;6053;51.382;6.768;2023-04-27T04:07:54;101660.56;;;10.26;73.10
11987;BME280;6053;51.382;6.768;2023-04-27T04:10:22;101667.13;;;10.25;73.47
11987;BME280;6053;51.382;6.768;2023-04-27T04:12:51;101660.38;;;10.27;73.56
11987;BME280;6053;51.382;6.768;2023-04-27T04:15:19;101662.94;;;10.42;75.60
11987;BME280;6053;51.382;6.768;2023-04-27T04:17:49;101656.97;;;10.32;72.78
11987;BME280;6053;51.382;6.768;2023-04-27T04:20:17;101661.72;;;10.58;73.38
11987;BME280;6053;51.382;6.768;2023-04-27T04:22:46;101663.41;;;10.72;72.10
11987;BME280;6053;51.382;6.768;2023-04-27T04:25:14;101663.41;;;10.66;73.76
11987;BME280;6053;51.382;6.768;2023-04-27T04:27:42;101675.47;;;10.38;69.44
11987;BME280;6053;51.382;6.768;2023-04-27T04:30:12;101661.25;;;10.41;73.79
11987;BME280;6053;51.382;6.768;2023-04-27T04:32:40;101667.19;;;10.45;74.39
11987;BME280;6053;51.382;6.768;2023-04-27T04:35:12;101665.56;;;10.70;70.28
11987;BME280;6053;51.382;6.768;2023-04-27T04:37:42;101669.97;;;10.58;73.12
11987;BME280;6053;51.382;6.768;2023-04-27T04:40:11;101675.28;;;10.59;69.12
11987;BME280;6053;51.382;6.768;2023-04-27T04:42:40;101668.09;;;10.78;72.72
11987;BME280;6053;51.382;6.768;2023-04-27T04:45:09;101672.78;;;10.78;72.09
11987;BME280;6053;51.382;6.768;2023-04-27T04:47:37;101677.19;;;10.59;71.77
11987;BME280;6053;51.382;6.768;2023-04-27T04:50:07;101670.91;;;10.10;70.60
11987;BME280;6053;51.382;6.768;2023-04-27T04:52:38;101674.69;;;10.03;69.40
11987;BME280;6053;51.382;6.768;2023-04-27T04:55:07;101674.28;;;9.64;74.77
11987;BME280;6053;51.382;6.768;2023-04-27T04:57:35;101673.13;;;10.42;68.02
11987;BME280;6053;51.382;6.768;2023-04-27T05:00:05;101671.91;;;11.30;68.99
11987;BME280;6053;51.382;6.768;2023-04-27T05:02:37;101674.28;;;11.98;66.75
11987;BME280;6053;51.382;6.768;2023-04-27T05:05:07;101677.88;;;12.44;65.00
11987;BME280;6053;51.382;6.768;2023-04-27T05:07:37;101684.50;;;12.43;61.24
11987;BME280;6053;51.382;6.768;2023-04-27T05:10:06;101684.22;;;12.13;59.21
11987;BME280;6053;51.382;6.768;2023-04-27T05:12:34;101693.41;;;12.07;61.91
11987;BME280;6053;51.382;6.768;2023-04-27T05:15:03;101691.28;;;12.47;59.65
11987;BME280;6053;51.382;6.768;2023-04-27T05:17:32;101687.44;;;13.11;61.93
11987;BME280;6053;51.382;6.768;2023-04-27T05:20:00;101690.06;;;13.31;60.96
11987;BME280;6053;51.382;6.768;2023-04-27T05:22:30;101690.69;;;13.52;59.60
11987;BME280;6053;51.382;6.768;2023-04-27T05:25:00;101699.16;;;13.57;59.43
11987;BME280;6053;51.382;6.768;2023-04-27T05:27:29;101701.28;;;13.11;61.13
11987;BME280;6053;51.382;6.768;2023-04-27T05:29:57;101707.63;;;12.87;59.34
11987;BME280;6053;51.382;6.768;2023-04-27T05:32:26;101699.06;;;13.20;55.83
11987;BME280;6053;51.382;6.768;2023-04-27T05:34:54;101714.91;;;12.49;58.14
11987;BME280;6053;51.382;6.768;2023-04-27T05:37:22;101707.50;;;13.75;59.34
11987;BME280;6053;51.382;6.768;2023-04-27T05:39:50;101705.66;;;13.69;56.98
11987;BME280;6053;51.382;6.768;2023-04-27T05:42:20;101725.97;;;13.13;54.99
11987;BME280;6053;51.382;6.768;2023-04-27T05:44:48;101725.81;;;13.08;59.44
11987;BME280;6053;51.382;6.768;2023-04-27T05:47:17;101714.75;;;12.38;57.30
11987;BME280;6053;51.382;6.768;2023-04-27T05:49:49;101709.81;;;13.97;57.10
11987;BME280;6053;51.382;6.768;2023-04-27T05:52:19;101720.13;;;11.21;62.87
11987;BME280;6053;51.382;6.768;2023-04-27T05:54:48;101719.94;;;12.21;59.29
11987;BME280;6053;51.382;6.768;2023-04-27T05:57:17;101722.72;;;12.21;57.81
11987;BME280;6053;51.382;6.768;2023-04-27T05:59:47;101716.88;;;11.91;59.54
11987;BME280;6053;51.382;6.768;2023-04-27T06:02:16;101726.06;;;13.00;58.50
11987;BME280;6053;51.382;6.768;2023-04-27T06:04:45;101732.44;;;11.59;57.32
11987;BME280;6053;51.382;6.768;2023-04-27T06:07:14;101726.38;;;13.16;59.37
11987;BME280;6053;51.382;6.768;2023-04-27T06:09:42;101729.81;;;12.48;56.10
11987;BME280;6053;51.382;6.768;2023-04-27T06:12:11;101725.50;;;12.59;55.47
11987;BME280;6053;51.382;6.768;2023-04-27T06:14:39;101722.28;;;13.87;55.92
11987;BME280;6053;51.382;6.768;2023-04-27T06:17:09;101725.47;;;13.23;54.21
11987;BME280;6053;51.382;6.768;2023-04-27T06:19:37;101722.09;;;13.46;54.84
11987;BME280;6053;51.382;6.768;2023-04-27T06:22:06;101719.06;;;12.65;55.89
11987;BME280;6053;51.382;6.768;2023-04-27T06:24:34;101726.50;;;13.53;55.55
11987;BME280;6053;51.382;6.768;2023-04-27T06:27:02;101728.97;;;12.48;53.04
11987;BME280;6053;51.382;6.768;2023-04-27T06:29:31;101730.31;;;12.70;53.89
11987;BME280;6053;51.382;6.768;2023-04-27T06:31:59;101731.63;;;12.68;56.74
11987;BME280;6053;51.382;6.768;2023-04-27T06:34:29;101734.50;;;11.90;57.94
11987;BME280;6053;51.382;6.768;2023-04-27T06:36:57;101730.31;;;12.32;58.51
11987;BME280;6053;51.382;6.768;2023-04-27T06:39:26;101723.41;;;12.86;55.82
11987;BME280;6053;51.382;6.768;2023-04-27T06:41:54;101728.72;;;12.88;56.49
11987;BME280;6053;51.382;6.768;2023-04-27T06:44:22;101725.31;;;12.02;55.31
11987;BME280;6053;51.382;6.768;2023-04-27T06:46:51;101735.06;;;12.95;53.19
11987;BME280;6053;51.382;6.768;2023-04-27T06:49:19;101723.50;;;12.73;53.16
11987;BME280;6053;51.382;6.768;2023-04-27T06:51:49;101734.31;;;13.38;51.21
11987;BME280;6053;51.382;6.768;2023-04-27T06:54:17;101741.03;;;12.15;53.92
11987;BME280;6053;51.382;6.768;2023-04-27T06:56:46;101727.19;;;12.15;56.54
11987;BME280;6053;51.382;6.768;2023-04-27T06:59:14;101727.94;;;12.74;54.27
11987;BME280;6053;51.382;6.768;2023-04-27T07:01:42;101718.66;;;13.25;54.83
11987;BME280;6053;51.382;6.768;2023-04-27T07:04:11;101726.16;;;12.55;51.88
11987;BME280;6053;51.382;6.768;2023-04-27T07:06:39;101723.44;;;14.95;53.86
11987;BME280;6053;51.382;6.768;2023-04-27T07:09:09;101726.00;;;12.81;48.53
11987;BME280;6053;51.382;6.768;2023-04-27T07:11:52;101725.28;;;13.17;49.50
11987;BME280;6053;51.382;6.768;2023-04-27T07:14:21;101715.38;;;14.45;50.34
11987;BME280;6053;51.382;6.768;2023-04-27T07:16:49;101722.47;;;14.41;50.14
11987;BME280;6053;51.382;6.768;2023-04-27T07:19:18;101720.03;;;12.46;50.25
11987;BME280;6053;51.382;6.768;2023-04-27T07:21:46;101716.91;;;14.11;50.67
11987;BME280;6053;51.382;6.768;2023-04-27T07:24:17;101725.00;;;14.12;47.96
11987;BME280;6053;51.382;6.768;2023-04-27T07:26:46;101712.75;;;12.83;52.00
11987;BME280;6053;51.382;6.768;2023-04-27T07:29:14;101721.13;;;12.77;49.58
11987;BME280;6053;51.382;6.768;2023-04-27T07:31:52;101719.44;;;14.79;49.86
11987;BME280;6053;51.382;6.768;2023-04-27T07:34:21;101724.31;;;13.99;53.07
11987;BME280;6053;51.382;6.768;2023-04-27T07:36:51;101719.28;;;15.16;48.21
11987;BME280;6053;51.382;6.768;2023-04-27T07:39:22;101726.47;;;14.94;45.35
11987;BME280;6053;51.382;6.768;2023-04-27T07:41:50;101728.56;;;15.10;49.48
11987;BME280;6053;51.382;6.768;2023-04-27T07:44:19;101729.28;;;14.75;50.69
11987;BME280;6053;51.382;6.768;2023-04-27T07:46:48;101728.16;;;13.98;47.24
11987;BME280;6053;51.382;6.768;2023-04-27T07:49:16;101726.72;;;15.04;46.32
11987;BME280;6053;51.382;6.768;2023-04-27T07:51:45;101723.88;;;16.05;46.36
11987;BME280;6053;51.382;6.768;2023-04-27T07:54:14;101722.78;;;15.35;48.65
11987;BME280;6053;51.382;6.768;2023-04-27T07:56:43;101718.72;;;16.25;49.46
11987;BME280;6053;51.382;6.768;2023-04-27T07:59:12;101725.56;;;15.23;48.20
11987;BME280;6053;51.382;6.768;2023-04-27T08:01:41;101727.09;;;14.47;48.31
11987;BME280;6053;51.382;6.768;2023-04-27T08:04:10;101716.53;;;13.89;49.12
11987;BME280;6053;51.382;6.768;2023-04-27T08:06:40;101716.66;;;14.79;47.28
11987;BME280;6053;51.382;6.768;2023-04-27T08:09:09;101723.13;;;15.15;47.38
11987;BME280;6053;51.382;6.768;2023-04-27T08:11:37;101710.91;;;14.63;47.47
11987;BME280;6053;51.382;6.768;2023-04-27T08:14:07;101710.53;;;13.92;43.97
11987;BME280;6053;51.382;6.768;2023-04-27T08:16:40;101716.00;;;13.99;48.67
11987;BME280;6053;51.382;6.768;2023-04-27T08:19:09;101703.47;;;14.26;50.73
11987;BME280;6053;51.382;6.768;2023-04-27T08:21:38;101707.88;;;14.15;47.14
11987;BME280;6053;51.382;6.768;2023-04-27T08:24:07;101706.72;;;14.23;47.84
11987;BME280;6053;51.382;6.768;2023-04-27T08:26:35;101704.78;;;14.72;49.03
11987;BME280;6053;51.382;6.768;2023-04-27T08:29:04;101699.41;;;14.89;46.95
11987;BME280;6053;51.382;6.768;2023-04-27T08:31:54;101686.69;;;13.84;48.89
11987;BME280;6053;51.382;6.768;2023-04-27T08:34:23;101692.00;;;13.49;50.03
11987;BME280;6053;51.382;6.768;2023-04-27T08:36:52;101690.38;;;14.64;46.02
11987;BME280;6053;51.382;6.768;2023-04-27T08:39:21;101682.56;;;13.75;48.64
11987;BME280;6053;51.382;6.768;2023-04-27T08:41:50;101684.56;;;14.35;52.22
11987;BME280;6053;51.382;6.768;2023-04-27T08:44:18;101680.91;;;14.23;45.65
11987;BME280;6053;51.382;6.768;2023-04-27T08:46:47;101677.69;;;13.71;46.84
11987;BME280;6053;51.382;6.768;2023-04-27T08:49:18;101684.09;;;13.89;47.14
11987;BME280;6053;51.382;6.768;2023-04-27T08:51:48;101687.03;;;14.73;44.50
11987;BME280;6053;51.382;6.768;2023-04-27T08:54:16;101687.78;;;14.80;48.86
11987;BME280;6053;51.382;6.768;2023-04-27T08:56:46;101681.44;;;13.58;45.23
11987;BME280;6053;51.382;6.768;2023-04-27T08:59:15;101686.28;;;13.44;51.92
11987;BME280;6053;51.382;6.768;2023-04-27T09:01:44;101687.38;;;13.61;44.45
11987;BME280;6053;51.382;6.768;2023-04-27T09:04:15;101685.00;;;14.80;47.55
11987;BME280;6053;51.382;6.768;2023-04-27T09:06:46;101675.81;;;14.50;49.88
11987;BME280;6053;51.382;6.768;2023-04-27T09:09:22;101682.53;;;15.14;50.51
11987;BME280;6053;51.382;6.768;2023-04-27T09:11:51;101677.50;;;14.81;44.09
11987;BME280;6053;51.382;6.768;2023-04-27T09:14:21;101670.72;;;14.17;45.91
11987;BME280;6053;51.382;6.768;2023-04-27T09:16:54;101669.16;;;13.04;46.73
11987;BME280;6053;51.382;6.768;2023-04-27T09:19:24;101661.38;;;14.29;52.16
11987;BME280;6053;51.382;6.768;2023-04-27T09:22:04;101672.81;;;12.97;44.74
11987;BME280;6053;51.382;6.768;2023-04-27T09:24:33;101677.72;;;14.68;48.05
11987;BME280;6053;51.382;6.768;2023-04-27T09:27:02;101662.97;;;15.56;45.10
11987;BME280;6053;51.382;6.768;2023-04-27T09:29:35;101672.84;;;15.05;41.79
11987;BME280;6053;51.382;6.768;2023-04-27T09:32:14;101662.00;;;15.74;47.68
11987;BME280;6053;51.382;6.768;2023-04-27T09:34:44;101673.94;;;15.27;43.34
11987;BME280;6053;51.382;6.768;2023-04-27T09:37:13;101669.44;;;14.91;43.05
11987;BME280;6053;51.382;6.768;2023-04-27T09:39:43;101672.69;;;14.88;41.22
11987;BME280;6053;51.382;6.768;2023-04-27T09:42:12;101664.84;;;16.31;48.42
11987;BME280;6053;51.382;6.768;2023-04-27T09:44:42;101667.16;;;15.82;41.34
11987;BME280;6053;51.382;6.768;2023-04-27T09:47:12;101662.84;;;15.74;38.90
11987;BME280;6053;51.382;6.768;2023-04-27T09:49:41;101663.16;;;14.84;41.40
11987;BME280;6053;51.382;6.768;2023-04-27T09:52:09;101660.28;;;13.82;51.34
11987;BME280;6053;51.382;6.768;2023-04-27T09:54:39;101666.75;;;14.73;38.92
11987;BME280;6053;51.382;6.768;2023-04-27T09:57:15;101665.13;;;15.07;38.08
11987;BME280;6053;51.382;6.768;2023-04-27T10:00:00;101659.47;;;14.72;39.08
11987;BME280;6053;51.382;6.768;2023-04-27T10:02:41;101647.94;;;15.22;42.92
11987;BME280;6053;51.382;6.768;2023-04-27T10:05:45;101661.00;;;14.86;43.69
11987;BME280;6053;51.382;6.768;2023-04-27T10:08:17;101655.22;;;15.23;44.88
11987;BME280;6053;51.382;6.768;2023-04-27T10:10:52;101663.88;;;14.79;41.40
11987;BME280;6053;51.382;6.768;2023-04-27T10:13:22;101642.81;;;14.60;40.22
11987;BME280;6053;51.382;6.768;2023-04-27T10:15:51;101643.38;;;15.16;47.44
11987;BME280;6053;51.382;6.768;2023-04-27T10:18:28;101645.78;;;15.47;36.34
11987;BME280;6053;51.382;6.768;2023-04-27T10:21:09;101634.41;;;15.02;44.58
11987;BME280;6053;51.382;6.768;2023-04-27T10:23:45;101637.44;;;15.12;35.61
11987;BME280;6053;51.382;6.768;2023-04-27T10:26:22;101636.34;;;14.90;39.38
11987;BME280;6053;51.382;6.768;2023-04-27T10:29:03;101636.47;;;14.83;45.17
11987;BME280;6053;51.382;6.768;2023-04-27T10:31:33;101629.91;;;14.66;42.62
11987;BME280;6053;51.382;6.768;2023-04-27T10:34:06;101625.22;;;14.48;44.50
11987;BME280;6053;51.382;6.768;2023-04-27T10:36:36;101633.84;;;15.23;47.70
11987;BME280;6053;51.382;6.768;2023-04-27T10:39:15;101630.56;;;15.03;40.40
11987;BME280;6053;51.382;6.768;2023-04-27T10:41:53;101623.19;;;15.32;45.35
11987;BME280;6053;51.382;6.768;2023-04-27T10:44:25;101612.63;;;15.57;46.70
11987;BME280;6053;51.382;6.768;2023-04-27T10:46:56;101620.69;;;14.53;37.58
11987;BME280;6053;51.382;6.768;2023-04-27T10:49:27;101615.78;;;14.67;40.60
11987;BME280;6053;51.382;6.768;2023-04-27T10:51:57;101605.53;;;15.50;42.43
11987;BME280;6053;51.382;6.768;2023-04-27T10:54:27;101617.03;;;15.18;37.99
11987;BME280;6053;51.382;6.768;2023-04-27T10:57:04;101614.97;;;16.01;40.64
11987;BME280;6053;51.382;6.768;2023-04-27T10:59:34;101616.38;;;15.51;36.39
11987;BME280;6053;51.382;6.768;2023-04-27T11:02:03;101607.47;;;16.30;40.12
11987;BME280;6053;51.382;6.768;2023-04-27T11:04:36;101615.41;;;15.57;31.92
11987;BME280;6053;51.382;6.768;2023-04-27T11:07:06;101609.63;;;15.36;31.95
11987;BME280;6053;51.382;6.768;2023-04-27T11:09:38;101614.97;;;15.25;34.46
11987;BME280;6053;51.382;6.768;2023-04-27T11:12:11;101606.13;;;15.28;32.62
11987;BME280;6053;51.382;6.768;2023-04-27T11:14:40;101610.63;;;14.82;33.98
11987;BME280;6053;51.382;6.768;2023-04-27T11:17:08;101607.34;;;15.56;40.59
11987;BME280;6053;51.382;6.768;2023-04-27T11:19:44;101608.69;;;15.18;40.33
11987;BME280;6053;51.382;6.768;2023-04-27T11:22:14;101601.84;;;15.85;40.02
11987;BME280;6053;51.382;6.768;2023-04-27T11:24:48;101600.44;;;15.99;38.20
11987;BME280;6053;51.382;6.768;2023-04-27T11:27:19;101597.06;;;15.45;35.66
11987;BME280;6053;51.382;6.768;2023-04-27T11:29:48;101596.13;;;15.16;36.85
11987;BME280;6053;51.382;6.768;2023-04-27T11:32:20;101595.75;;;15.12;38.26
11987;BME280;6053;51.382;6.768;2023-04-27T11:34:49;101591.88;;;15.37;41.90
11987;BME280;6053;51.382;6.768;2023-04-27T11:37:22;101592.97;;;15.12;39.92
11987;BME280;6053;51.382;6.768;2023-04-27T11:39:52;101588.75;;;14.32;40.21
11987;BME280;6053;51.382;6.768;2023-04-27T11:42:25;101579.59;;;14.44;47.39
11987;BME280;6053;51.382;6.768;2023-04-27T11:44:56;101575.94;;;15.20;37.02
11987;BME280;6053;51.382;6.768;2023-04-27T11:47:27;101574.72;;;15.40;35.39
11987;BME280;6053;51.382;6.768;2023-04-27T11:49:57;101578.84;;;14.90;39.89
11987;BME280;6053;51.382;6.768;2023-04-27T11:52:27;101578.44;;;14.21;37.41
11987;BME280;6053;51.382;6.768;2023-04-27T11:54:56;101575.22;;;14.90;40.31
11987;BME280;6053;51.382;6.768;2023-04-27T11:57:28;101569.19;;;15.16;38.25
11987;BME280;6053;51.382;6.768;2023-04-27T11:59:58;101569.75;;;15.42;41.92
11987;BME280;6053;51.382;6.768;2023-04-27T12:02:29;101553.63;;;15.67;44.85
11987;BME280;6053;51.382;6.768;2023-04-27T12:04:58;101558.22;;;14.44;37.57
11987;BME280;6053;51.382;6.768;2023-04-27T12:07:27;101555.88;;;14.18;43.42
11987;BME280;6053;51.382;6.768;2023-04-27T12:09:56;101553.09;;;15.18;45.03
11987;BME280;6053;51.382;6.768;2023-04-27T12:12:28;101545.84;;;15.17;42.28
11987;BME280;6053;51.382;6.768;2023-04-27T12:14:57;101550.53;;;15.28;36.02
11987;BME280;6053;51.382;6.768;2023-04-27T12:17:25;101544.34;;;14.32;43.23
11987;BME280;6053;51.382;6.768;2023-04-27T12:19:54;101540.50;;;14.03;38.73
11987;BME280;6053;51.382;6.768;2023-04-27T12:22:22;101537.22;;;14.36;47.16
11987;BME280;6053;51.382;6.768;2023-04-27T12:24:51;101547.38;;;14.43;37.84
11987;BME280;6053;51.382;6.768;2023-04-27T12:27:19;101553.56;;;14.14;35.28
11987;BME280;6053;51.382;6.768;2023-04-27T12:29:49;101538.97;;;15.20;49.95
11987;BME280;6053;51.382;6.768;2023-04-27T12:32:19;101534.34;;;15.25;37.05
11987;BME280;6053;51.382;6.768;2023-04-27T12:34:48;101534.41;;;15.94;42.41
11987;BME280;6053;51.382;6.768;2023-04-27T12:37:17;101527.81;;;16.29;43.55
11987;BME280;6053;51.382;6.768;2023-04-27T12:39:45;101534.75;;;16.26;39.09
11987;BME280;6053;51.382;6.768;2023-04-27T12:42:14;101531.38;;;15.67;42.15
11987;BME280;6053;51.382;6.768;2023-04-27T12:44:45;101534.97;;;16.25;44.41
11987;BME280;6053;51.382;6.768;2023-04-27T12:47:15;101525.34;;;16.33;42.12
11987;BME280;6053;51.382;6.768;2023-04-27T12:50:04;101521.84;;;16.54;38.03
11987;BME280;6053;51.382;6.768;2023-04-27T12:52:34;101516.00;;;16.89;36.93
11987;BME280;6053;51.382;6.768;2023-04-27T12:55:04;101516.78;;;16.51;36.10
11987;BME280;6053;51.382;6.768;2023-04-27T12:57:47;101521.00;;;15.51;39.23
11987;BME280;6053;51.382;6.768;2023-04-27T13:00:16;101510.97;;;15.50;48.47
11987;BME280;6053;51.382;6.768;2023-04-27T13:02:45;101517.94;;;16.21;43.42
11987;BME280;6053;51.382;6.768;2023-04-27T13:05:14;101522.06;;;15.62;34.17
11987;BME280;6053;51.382;6.768;2023-04-27T13:07:42;101525.41;;;16.04;33.43
11987;BME280;6053;51.382;6.768;2023-04-27T13:10:10;101521.09;;;14.92;34.96
11987;BME280;6053;51.382;6.768;2023-04-27T13:12:39;101515.66;;;16.18;43.84
11987;BME280;6053;51.382;6.768;2023-04-27T13:15:09;101519.84;;;16.04;36.64